createdAt,value
2022-12-18T00:01:32.082Z,80.30
2022-12-18T00:03:59.767Z,81.32
2022-12-18T00:06:33.575Z,82.15
2022-12-18T00:09:01.529Z,85.53
2022-12-18T00:11:33.952Z,80.65
2022-12-18T00:14:01.233Z,89.43
2022-12-18T00:16:29.449Z,84.95
2022-12-18T00:18:57.566Z,84.72
2022-12-18T00:21:24.201Z,83.32
2022-12-18T00:23:51.774Z,96.97
2022-12-18T00:26:21.424Z,82.40
2022-12-18T00:28:48.636Z,86.30
2022-12-18T00:31:17.752Z,87.55
2022-12-18T00:33:44.731Z,96.25
2022-12-18T00:36:22.637Z,84.50
2022-12-18T00:38:49.377Z,87.85
2022-12-18T00:41:36.678Z,87.63
2022-12-18T00:44:04.615Z,90.95
2022-12-18T00:46:33.797Z,92.07
2022-12-18T00:49:00.696Z,98.82
2022-12-18T00:51:27.648Z,97.70
2022-12-18T00:53:56.639Z,97.10
2022-12-18T00:56:24.071Z,87.97
2022-12-18T00:58:50.839Z,104.63
2022-12-18T01:01:18.385Z,98.03
2022-12-18T01:03:47.746Z,96.68
2022-12-18T01:06:15.832Z,104.55
2022-12-18T01:08:42.502Z,90.53
2022-12-18T01:11:12.850Z,93.13
2022-12-18T01:13:40.625Z,97.50
2022-12-18T01:16:08.188Z,92.28
2022-12-18T01:18:34.921Z,86.85
2022-12-18T01:21:10.318Z,80.68
2022-12-18T01:23:37.686Z,84.88
2022-12-18T01:26:14.092Z,107.50
2022-12-18T01:28:44.639Z,96.95
2022-12-18T01:31:15.375Z,92.22
2022-12-18T01:33:42.534Z,90.28
2022-12-18T01:36:09.869Z,93.95
2022-12-18T01:38:36.629Z,90.57
2022-12-18T01:41:03.391Z,88.10
2022-12-18T01:44:02.369Z,100.00
2022-12-18T01:46:31.444Z,95.20
2022-12-18T01:49:01.032Z,92.80
2022-12-18T01:51:31.668Z,95.07
2022-12-18T01:54:00.945Z,87.60
2022-12-18T01:56:28.130Z,91.70
2022-12-18T01:59:03.240Z,95.20
2022-12-18T02:01:31.818Z,96.03
2022-12-18T02:04:26.746Z,93.10
2022-12-18T02:07:11.266Z,91.90
2022-12-18T02:09:47.810Z,88.93
2022-12-18T02:12:20.119Z,95.13
2022-12-18T02:15:16.374Z,89.10
2022-12-18T02:17:55.166Z,88.80
2022-12-18T02:20:46.789Z,89.30
2022-12-18T02:23:43.546Z,89.40
2022-12-18T02:26:16.588Z,89.57
2022-12-18T02:29:05.905Z,83.25
2022-12-18T02:31:39.419Z,92.32
2022-12-18T02:36:34.790Z,78.68
2022-12-18T02:39:03.136Z,86.97
2022-12-18T02:41:33.943Z,86.53
2022-12-18T02:44:07.500Z,81.20
2022-12-18T02:49:25.516Z,86.05
2022-12-18T02:52:15.850Z,84.57
2022-12-18T02:55:08.067Z,83.95
2022-12-18T02:58:02.189Z,83.28
2022-12-18T03:00:31.295Z,86.40
2022-12-18T03:03:13.601Z,84.40
2022-12-18T03:05:48.599Z,84.43
2022-12-18T03:08:30.895Z,79.38
2022-12-18T03:11:10.163Z,82.07
2022-12-18T03:13:42.936Z,85.38
2022-12-18T03:16:17.341Z,97.38
2022-12-18T03:18:48.569Z,82.53
2022-12-18T03:21:18.290Z,90.88
2022-12-18T03:23:50.195Z,87.53
2022-12-18T03:26:21.669Z,81.90
2022-12-18T03:28:56.622Z,93.57
2022-12-18T03:31:28.561Z,87.93
2022-12-18T03:33:58.706Z,84.55
2022-12-18T03:36:25.778Z,87.60
2022-12-18T03:38:54.950Z,87.13
2022-12-18T03:41:36.463Z,89.57
2022-12-18T03:44:18.209Z,81.22
2022-12-18T03:46:50.853Z,86.43
2022-12-18T03:49:40.563Z,97.10
2022-12-18T03:52:27.795Z,75.65
2022-12-18T03:54:58.952Z,79.15
2022-12-18T03:57:29.371Z,92.78
2022-12-18T04:00:00.511Z,88.68
2022-12-18T04:02:27.268Z,90.82
2022-12-18T04:04:59.278Z,84.43
2022-12-18T04:07:26.412Z,87.78
2022-12-18T04:09:58.065Z,84.57
2022-12-18T04:12:27.141Z,83.80
2022-12-18T04:14:53.771Z,91.07
2022-12-18T04:17:22.581Z,81.78
2022-12-18T04:19:51.734Z,94.20
2022-12-18T04:22:22.850Z,81.22
2022-12-18T04:24:49.457Z,89.32
2022-12-18T04:27:16.108Z,86.50
2022-12-18T04:29:45.068Z,92.20
2022-12-18T04:32:13.955Z,82.45
2022-12-18T04:34:40.577Z,89.30
2022-12-18T04:37:09.421Z,91.65
2022-12-18T04:39:36.768Z,94.15
2022-12-18T04:42:06.013Z,90.22
2022-12-18T04:44:32.648Z,89.15
2022-12-18T04:46:59.300Z,79.25
2022-12-18T04:49:30.734Z,82.63
2022-12-18T04:51:59.617Z,88.88
2022-12-18T04:54:26.436Z,86.07
2022-12-18T04:56:53.048Z,87.30
2022-12-18T04:59:20.319Z,89.05
2022-12-18T05:01:47.190Z,88.80
2022-12-18T05:04:13.979Z,83.85
2022-12-18T05:06:43.012Z,83.35
2022-12-18T05:09:09.699Z,87.25
2022-12-18T05:11:36.339Z,94.35
2022-12-18T05:14:05.250Z,89.53
2022-12-18T05:16:34.865Z,86.07
2022-12-18T05:19:04.076Z,81.35
2022-12-18T05:21:33.783Z,97.97
2022-12-18T05:24:00.473Z,83.30
2022-12-18T05:26:29.276Z,81.85
2022-12-18T05:28:58.099Z,77.07
2022-12-18T05:31:24.796Z,90.10
2022-12-18T05:33:51.747Z,88.30
2022-12-18T05:36:18.524Z,89.22
2022-12-18T05:38:45.144Z,81.57
2022-12-18T05:41:11.983Z,85.82
2022-12-18T05:43:43.290Z,85.28
2022-12-18T05:46:14.450Z,76.78
2022-12-18T05:48:42.128Z,84.00
2022-12-18T05:51:15.786Z,90.57
2022-12-18T05:53:43.655Z,87.55
2022-12-18T05:56:16.379Z,95.15
2022-12-18T05:58:43.304Z,90.33
2022-12-18T06:01:16.693Z,90.78
2022-12-18T06:06:29.841Z,87.45
2022-12-18T06:08:57.531Z,82.88
2022-12-18T06:11:27.102Z,91.53
2022-12-18T06:13:58.584Z,94.90
2022-12-18T06:16:28.110Z,88.97
2022-12-18T06:18:57.829Z,85.50
2022-12-18T06:21:24.645Z,88.90
2022-12-18T06:23:51.422Z,87.22
2022-12-18T06:26:28.038Z,82.75
2022-12-18T06:28:55.575Z,87.88
2022-12-18T06:31:22.323Z,82.47
2022-12-18T06:33:49.017Z,90.57
2022-12-18T06:36:15.948Z,89.07
2022-12-18T06:38:44.558Z,87.03
2022-12-18T06:41:13.950Z,91.68
2022-12-18T06:43:40.929Z,84.28
2022-12-18T06:46:08.086Z,84.10
2022-12-18T06:48:35.148Z,85.40
2022-12-18T06:51:02.130Z,89.32
2022-12-18T06:53:29.467Z,95.55
2022-12-18T06:56:09.444Z,88.65
2022-12-18T06:58:37.299Z,85.28
2022-12-18T07:01:08.902Z,89.40
2022-12-18T07:03:35.714Z,97.25
2022-12-18T07:06:02.547Z,94.60
2022-12-18T07:08:31.049Z,89.20
2022-12-18T07:10:58.334Z,79.13
2022-12-18T07:13:24.946Z,83.30
2022-12-18T07:15:51.636Z,87.40
2022-12-18T07:18:18.283Z,90.10
2022-12-18T07:20:47.234Z,83.80
2022-12-18T07:23:14.768Z,88.70
2022-12-18T07:25:41.481Z,89.13
2022-12-18T07:28:10.599Z,92.25
2022-12-18T07:30:41.037Z,95.65
2022-12-18T07:33:08.835Z,87.60
2022-12-18T07:35:35.478Z,84.78
2022-12-18T07:38:02.111Z,80.07
2022-12-18T07:40:28.812Z,83.07
2022-12-18T07:42:55.480Z,84.10
2022-12-18T07:45:22.083Z,83.38
2022-12-18T07:47:48.744Z,85.05
2022-12-18T07:50:15.658Z,89.95
2022-12-18T07:52:42.377Z,92.50
2022-12-18T07:55:11.673Z,79.45
2022-12-18T07:57:57.757Z,80.95
2022-12-18T08:00:26.014Z,78.05
2022-12-18T08:02:52.757Z,88.00
2022-12-18T08:05:24.688Z,84.85
2022-12-18T08:07:54.023Z,80.30
2022-12-18T08:10:21.544Z,83.25
2022-12-18T08:13:03.096Z,82.75
2022-12-18T08:15:31.687Z,87.00
2022-12-18T08:17:58.587Z,78.20
2022-12-18T08:20:25.314Z,82.18
2022-12-18T08:22:52.047Z,74.80
2022-12-18T08:25:18.667Z,85.43
2022-12-18T08:27:45.302Z,79.63
2022-12-18T08:30:12.548Z,72.55
2022-12-18T08:32:39.200Z,75.40
2022-12-18T08:35:06.756Z,81.35
2022-12-18T08:37:33.534Z,71.00
2022-12-18T08:40:04.797Z,79.38
2022-12-18T08:42:52.542Z,76.15
2022-12-18T08:45:19.330Z,79.90
2022-12-18T08:47:48.376Z,77.22
2022-12-18T08:50:15.894Z,74.93
2022-12-18T08:52:42.618Z,80.40
2022-12-18T08:55:10.561Z,76.43
2022-12-18T08:57:37.278Z,70.82
2022-12-18T09:00:05.783Z,69.18
2022-12-18T09:02:32.806Z,67.03
2022-12-18T09:04:59.648Z,67.57
2022-12-18T09:07:26.522Z,71.90
2022-12-18T09:09:55.806Z,73.85
2022-12-18T09:12:22.507Z,66.50
2022-12-18T09:14:51.732Z,67.55
2022-12-18T09:17:18.678Z,75.07
2022-12-18T09:19:45.461Z,72.88
2022-12-18T09:22:12.092Z,70.93
2022-12-18T09:24:38.709Z,72.15
2022-12-18T09:27:05.542Z,68.20
2022-12-18T09:29:33.273Z,62.50
2022-12-18T09:32:00.087Z,67.53
2022-12-18T09:34:26.707Z,69.47
2022-12-18T09:36:53.575Z,72.25
2022-12-18T09:39:22.106Z,72.03
2022-12-18T09:41:58.919Z,70.05
2022-12-18T09:44:44.956Z,65.78
2022-12-18T09:47:18.182Z,61.97
2022-12-18T09:49:54.044Z,66.78
2022-12-18T09:52:25.093Z,62.92
2022-12-18T09:54:57.529Z,65.35
2022-12-18T09:57:26.596Z,62.55
2022-12-18T10:00:25.013Z,67.00
2022-12-18T10:03:02.206Z,62.92
2022-12-18T10:05:48.372Z,63.40
2022-12-18T10:08:28.272Z,62.88
2022-12-18T10:11:01.817Z,63.22
2022-12-18T10:13:44.033Z,67.57
2022-12-18T10:16:14.464Z,60.60
2022-12-18T10:18:46.937Z,61.88
2022-12-18T10:21:21.429Z,66.13
2022-12-18T10:24:12.028Z,60.72
2022-12-18T10:26:41.833Z,64.20
2022-12-18T10:29:13.913Z,64.22
2022-12-18T10:31:41.346Z,62.40
2022-12-18T10:34:14.199Z,62.78
2022-12-18T10:36:41.277Z,60.03
2022-12-18T10:39:27.117Z,59.67
2022-12-18T10:42:20.525Z,61.35
2022-12-18T10:45:01.508Z,56.40
2022-12-18T10:47:28.192Z,59.90
2022-12-18T10:49:57.928Z,60.95
2022-12-18T10:52:28.415Z,63.50
2022-12-18T10:55:06.852Z,63.67
2022-12-18T10:57:39.017Z,65.70
2022-12-18T11:00:28.538Z,65.10
2022-12-18T11:02:58.962Z,63.40
2022-12-18T11:05:29.614Z,65.95
2022-12-18T11:07:57.746Z,67.28
2022-12-18T11:10:35.127Z,72.40
2022-12-18T11:13:19.603Z,57.47
2022-12-18T11:15:47.133Z,59.33
2022-12-18T11:18:32.698Z,56.42
2022-12-18T11:21:17.600Z,58.58
2022-12-18T11:23:54.818Z,58.60
2022-12-18T11:26:34.293Z,57.97
2022-12-18T11:29:19.534Z,57.95
2022-12-18T11:31:47.300Z,56.78
2022-12-18T11:34:29.759Z,51.25
2022-12-18T11:37:00.562Z,52.25
2022-12-18T11:39:45.781Z,55.83
2022-12-18T11:42:20.539Z,59.33
2022-12-18T11:44:52.229Z,58.20
2022-12-18T11:47:44.920Z,59.97
2022-12-18T11:50:23.197Z,58.63
2022-12-18T11:52:55.955Z,63.67
2022-12-18T11:55:34.173Z,60.67
2022-12-18T11:58:42.731Z,54.05
2022-12-18T12:01:25.439Z,63.97
2022-12-18T12:04:06.700Z,63.65
2022-12-18T12:06:50.509Z,61.45
2022-12-18T12:09:52.831Z,62.75
2022-12-18T12:12:57.841Z,60.13
2022-12-18T12:15:40.445Z,68.70
2022-12-18T12:18:24.443Z,64.28
2022-12-18T12:23:53.340Z,68.22
2022-12-18T12:26:38.892Z,68.00
2022-12-18T12:29:11.193Z,66.78
2022-12-18T12:32:05.623Z,69.40
2022-12-18T12:35:21.003Z,67.40
2022-12-18T12:38:00.214Z,66.25
2022-12-18T12:43:43.344Z,64.55
2022-12-18T12:46:20.894Z,69.18
2022-12-18T12:48:53.506Z,71.38
2022-12-18T12:51:27.387Z,65.63
2022-12-18T12:53:57.515Z,67.93
2022-12-18T12:56:31.645Z,73.28
2022-12-18T12:59:31.745Z,70.90
2022-12-18T13:02:29.801Z,67.72
2022-12-18T13:05:20.263Z,69.57
2022-12-18T13:08:02.726Z,69.03
2022-12-18T13:10:41.756Z,64.28
2022-12-18T13:13:18.625Z,66.95
2022-12-18T13:16:09.357Z,68.00
2022-12-18T13:18:36.481Z,65.88
2022-12-18T13:21:21.689Z,67.72
2022-12-18T13:23:49.162Z,63.58
2022-12-18T13:26:27.917Z,67.03
2022-12-18T13:28:57.242Z,70.32
2022-12-18T13:31:42.638Z,70.35
2022-12-18T13:34:29.364Z,72.22
2022-12-18T13:37:17.834Z,75.40
2022-12-18T13:39:44.779Z,63.83
2022-12-18T13:42:34.261Z,74.43
2022-12-18T13:45:01.218Z,65.97
2022-12-18T13:47:38.935Z,71.15
2022-12-18T13:50:24.045Z,65.20
2022-12-18T13:52:52.024Z,78.40
2022-12-18T13:55:21.725Z,78.35
2022-12-18T13:57:50.495Z,77.88
2022-12-18T14:00:31.307Z,70.38
2022-12-18T14:02:59.810Z,69.50
2022-12-18T14:05:31.202Z,71.47
2022-12-18T14:08:06.771Z,74.22
2022-12-18T14:10:47.695Z,77.53
2022-12-18T14:13:39.004Z,80.95
2022-12-18T14:16:08.159Z,78.05
2022-12-18T14:18:43.166Z,81.82
2022-12-18T14:21:29.241Z,81.13
2022-12-18T14:24:20.566Z,87.55
2022-12-18T14:26:50.446Z,87.53
2022-12-18T14:29:32.825Z,77.57
2022-12-18T14:32:14.946Z,85.80
2022-12-18T14:34:51.878Z,86.07
2022-12-18T14:37:26.895Z,90.18
2022-12-18T14:40:10.176Z,80.75
2022-12-18T14:42:38.302Z,80.32
2022-12-18T14:45:39.170Z,83.55
2022-12-18T14:48:22.966Z,84.00
2022-12-18T14:51:00.629Z,75.45
2022-12-18T14:53:52.118Z,84.65
2022-12-18T14:56:30.421Z,83.90
2022-12-18T14:58:57.066Z,83.22
2022-12-18T15:01:30.348Z,81.45
2022-12-18T15:04:01.409Z,79.22
2022-12-18T15:06:29.977Z,82.65
2022-12-18T15:09:02.516Z,85.80
2022-12-18T15:11:35.718Z,82.22
2022-12-18T15:14:23.648Z,82.82
2022-12-18T15:16:55.561Z,80.57
2022-12-18T15:19:40.382Z,80.90
2022-12-18T15:22:41.024Z,85.60
2022-12-18T15:25:35.760Z,93.78
2022-12-18T15:28:04.372Z,89.50
2022-12-18T15:30:33.763Z,94.65
2022-12-18T15:33:26.757Z,98.97
2022-12-18T15:36:02.002Z,86.50
2022-12-18T15:38:28.930Z,89.57
2022-12-18T15:40:59.343Z,85.15
2022-12-18T15:43:36.237Z,83.00
2022-12-18T15:46:12.043Z,82.38
2022-12-18T15:48:49.483Z,82.72
2022-12-18T15:51:17.280Z,96.55
2022-12-18T15:53:45.092Z,90.20
2022-12-18T15:56:32.211Z,85.68
2022-12-18T15:59:01.833Z,90.43
2022-12-18T16:01:32.150Z,92.95
2022-12-18T16:03:59.153Z,95.68
2022-12-18T16:06:25.860Z,93.55
2022-12-18T16:08:54.920Z,92.85
2022-12-18T16:11:42.800Z,80.70
2022-12-18T16:14:22.353Z,86.90
2022-12-18T16:16:51.647Z,87.75
2022-12-18T16:19:19.262Z,86.72
2022-12-18T16:21:47.490Z,86.03
2022-12-18T16:24:27.646Z,88.10
2022-12-18T16:26:55.329Z,93.45
2022-12-18T16:29:25.669Z,86.70
2022-12-18T16:31:53.009Z,81.50
2022-12-18T16:34:35.841Z,85.93
2022-12-18T16:37:08.465Z,80.25
2022-12-18T16:39:36.390Z,78.43
2022-12-18T16:42:05.911Z,82.65
2022-12-18T16:44:33.918Z,76.53
2022-12-18T16:47:02.946Z,77.43
2022-12-18T16:49:33.288Z,77.13
2022-12-18T16:52:02.669Z,90.47
2022-12-18T16:54:31.762Z,79.00
2022-12-18T16:56:58.583Z,77.57
2022-12-18T16:59:30.041Z,84.20
2022-12-18T17:01:57.409Z,80.03
2022-12-18T17:04:24.293Z,80.80
2022-12-18T17:06:53.467Z,81.63
2022-12-18T17:09:25.371Z,78.63
2022-12-18T17:11:53.266Z,79.35
2022-12-18T17:14:22.723Z,83.63
2022-12-18T17:17:07.447Z,82.05
2022-12-18T17:19:36.514Z,77.93
2022-12-18T17:22:04.382Z,80.50
2022-12-18T17:24:34.826Z,79.13
2022-12-18T17:27:02.184Z,69.97
2022-12-18T17:29:31.121Z,81.15
2022-12-18T17:31:59.670Z,82.38
2022-12-18T17:34:27.452Z,76.25
2022-12-18T17:36:54.139Z,84.63
2022-12-18T17:39:25.768Z,82.65
2022-12-18T17:41:52.493Z,81.88
2022-12-18T17:44:19.168Z,80.72
2022-12-18T17:46:46.537Z,91.15
2022-12-18T17:49:16.392Z,87.22
2022-12-18T17:51:43.346Z,86.45
2022-12-18T17:54:13.145Z,82.68
2022-12-18T17:56:39.990Z,79.68
2022-12-18T17:59:07.081Z,85.35
2022-12-18T18:01:34.076Z,90.38
2022-12-18T18:04:07.307Z,83.13
2022-12-18T18:06:34.475Z,60.42
2022-12-18T18:09:04.789Z,77.40
2022-12-18T18:11:50.044Z,87.25
2022-12-18T18:14:20.266Z,78.30
2022-12-18T18:16:52.336Z,81.75
2022-12-18T18:19:21.785Z,79.53
2022-12-18T18:21:53.440Z,78.18
2022-12-18T18:24:24.298Z,81.28
2022-12-18T18:26:54.240Z,77.03
2022-12-18T18:29:23.748Z,80.68
2022-12-18T18:31:55.420Z,73.15
2022-12-18T18:34:24.887Z,79.70
2022-12-18T18:36:51.705Z,88.03
2022-12-18T18:39:18.729Z,77.75
2022-12-18T18:41:47.790Z,85.07
2022-12-18T18:44:16.351Z,83.22
2022-12-18T18:46:43.592Z,85.90
2022-12-18T18:49:11.143Z,85.00
2022-12-18T18:51:37.781Z,82.28
2022-12-18T18:54:04.603Z,79.80
2022-12-18T18:59:19.176Z,76.03
2022-12-18T19:01:49.141Z,77.20
2022-12-18T19:04:18.409Z,75.72
2022-12-18T19:06:47.677Z,80.25
2022-12-18T19:09:15.311Z,79.05
2022-12-18T19:12:00.855Z,76.93
2022-12-18T19:14:27.643Z,82.88
2022-12-18T19:16:54.469Z,79.22
2022-12-18T19:19:25.235Z,72.97
2022-12-18T19:21:51.969Z,81.88
2022-12-18T19:24:18.656Z,73.93
2022-12-18T19:26:47.703Z,72.25
2022-12-18T19:29:19.531Z,80.43
2022-12-18T19:31:46.309Z,75.82
2022-12-18T19:34:13.210Z,81.15
2022-12-18T19:36:41.226Z,71.25
2022-12-18T19:39:11.966Z,70.05
2022-12-18T19:41:38.858Z,73.97
2022-12-18T19:44:08.227Z,74.13
2022-12-18T19:46:35.835Z,74.05
2022-12-18T19:49:03.146Z,73.47
2022-12-18T19:51:31.092Z,80.72
2022-12-18T19:54:01.247Z,71.60
2022-12-18T19:56:32.115Z,70.88
2022-12-18T19:58:58.865Z,70.68
2022-12-18T20:01:27.966Z,69.05
2022-12-18T20:03:58.187Z,74.40
2022-12-18T20:06:28.600Z,76.75
2022-12-18T20:09:03.100Z,71.80
2022-12-18T20:11:30.792Z,76.85
2022-12-18T20:13:58.482Z,78.38
2022-12-18T20:16:25.251Z,81.10
2022-12-18T20:18:52.363Z,77.30
2022-12-18T20:21:20.906Z,80.65
2022-12-18T20:23:47.608Z,75.15
2022-12-18T20:26:14.532Z,80.88
2022-12-18T20:28:42.265Z,83.35
2022-12-18T20:31:13.397Z,76.18
2022-12-18T20:33:42.038Z,72.40
2022-12-18T20:36:16.048Z,75.60
2022-12-18T20:38:49.232Z,78.13
2022-12-18T20:41:21.323Z,76.60
2022-12-18T20:43:48.854Z,78.32
2022-12-18T20:46:17.288Z,69.82
2022-12-18T20:48:44.879Z,68.32
2022-12-18T20:51:13.984Z,80.20
2022-12-18T20:53:46.690Z,76.85
2022-12-18T20:56:22.003Z,70.57
2022-12-18T20:58:55.007Z,79.85
2022-12-18T21:01:25.440Z,71.28
2022-12-18T21:03:52.534Z,77.85
2022-12-18T21:06:21.387Z,76.93
2022-12-18T21:08:48.392Z,74.88
2022-12-18T21:11:36.274Z,85.70
2022-12-18T21:14:05.155Z,78.88
2022-12-18T21:16:34.137Z,80.53
2022-12-18T21:19:00.775Z,80.00
2022-12-18T21:21:27.725Z,75.88
2022-12-18T21:23:54.738Z,88.70
2022-12-18T21:26:26.575Z,78.10
2022-12-18T21:28:55.530Z,76.78
2022-12-18T21:31:24.105Z,77.60
2022-12-18T21:33:51.899Z,77.25
2022-12-18T21:36:23.955Z,80.30
2022-12-18T21:38:53.593Z,78.95
2022-12-18T21:41:42.281Z,76.70
2022-12-18T21:44:12.421Z,80.93
2022-12-18T21:46:43.004Z,80.55
2022-12-18T21:49:11.006Z,79.05
2022-12-18T21:51:38.730Z,73.00
2022-12-18T21:54:05.572Z,76.00
2022-12-18T21:57:03.906Z,72.63
2022-12-18T21:59:37.184Z,77.32
2022-12-18T22:02:08.067Z,76.75
2022-12-18T22:04:37.045Z,78.50
2022-12-18T22:07:07.059Z,81.88
2022-12-18T22:09:34.181Z,82.10
2022-12-18T22:12:00.988Z,83.18
2022-12-18T22:14:30.045Z,80.78
2022-12-18T22:16:57.382Z,76.78
2022-12-18T22:19:27.275Z,81.78
2022-12-18T22:21:54.054Z,79.00
2022-12-18T22:24:22.778Z,82.47
2022-12-18T22:26:51.280Z,78.75
2022-12-18T22:29:40.866Z,76.47
2022-12-18T22:32:09.365Z,85.10
2022-12-18T22:34:38.569Z,86.35
2022-12-18T22:37:12.165Z,81.13
2022-12-18T22:39:39.929Z,82.03
2022-12-18T22:42:07.454Z,82.15
2022-12-18T22:44:36.697Z,82.38
2022-12-18T22:47:06.353Z,82.75
2022-12-18T22:49:35.473Z,81.72
2022-12-18T22:52:04.036Z,83.70
2022-12-18T22:54:35.496Z,80.38
2022-12-18T22:57:02.138Z,78.13
2022-12-18T22:59:29.885Z,79.03
2022-12-18T23:01:58.947Z,81.22
2022-12-18T23:04:34.287Z,79.97
2022-12-18T23:07:06.578Z,76.70
2022-12-18T23:09:33.551Z,80.68
2022-12-18T23:12:00.843Z,77.25
2022-12-18T23:14:28.480Z,79.53
2022-12-18T23:16:55.115Z,79.90
2022-12-18T23:19:23.534Z,78.75
2022-12-18T23:21:51.143Z,78.22
2022-12-18T23:24:18.111Z,72.50
2022-12-18T23:26:44.729Z,80.60
2022-12-18T23:29:11.343Z,79.60
2022-12-18T23:31:39.531Z,83.60
2022-12-18T23:34:07.608Z,84.65
2022-12-18T23:36:45.266Z,76.72
2022-12-18T23:39:28.792Z,78.20
2022-12-18T23:42:00.826Z,81.32
2022-12-18T23:44:30.241Z,85.15
2022-12-18T23:46:57.025Z,84.22
2022-12-18T23:49:23.749Z,76.57
2022-12-18T23:51:50.362Z,75.97
2022-12-18T23:54:17.029Z,85.63
2022-12-18T23:56:47.683Z,82.03
2022-12-18T23:59:14.308Z,82.28
